sensor_id;sensor_type;location;lat;lon;timestamp;pressure;altitude;pressure_sealevel;temperature;humidity
27840;BME280;15207;42.182;24.308;2022-11-20T00:01:24;98660.03;;;10.39;100.00
27840;BME280;15207;42.182;24.308;2022-11-20T00:03:51;98671.94;;;10.66;100.00
27840;BME280;15207;42.182;24.308;2022-11-20T00:06:19;98654.19;;;10.75;100.00
27840;BME280;15207;42.182;24.308;2022-11-20T00:08:45;98631.41;;;10.40;100.00
27840;BME280;15207;42.182;24.308;2022-11-20T00:11:15;98650.81;;;10.32;100.00
27840;BME280;15207;42.182;24.308;2022-11-20T00:13:42;98671.84;;;10.37;100.00
27840;BME280;15207;42.182;24.308;2022-11-20T00:16:09;98670.94;;;10.26;100.00
27840;BME280;15207;42.182;24.308;2022-11-20T00:18:35;98669.47;;;10.12;100.00
27840;BME280;15207;42.182;24.308;2022-11-20T00:23:28;98656.00;;;10.24;100.00
27840;BME280;15207;42.182;24.308;2022-11-20T00:25:53;98667.44;;;10.36;100.00
27840;BME280;15207;42.182;24.308;2022-11-20T00:28:19;98637.63;;;10.40;100.00
27840;BME280;15207;42.182;24.308;2022-11-20T00:30:44;98640.06;;;10.12;100.00
27840;BME280;15207;42.182;24.308;2022-11-20T00:33:10;98653.25;;;10.35;100.00
27840;BME280;15207;42.182;24.308;2022-11-20T00:35:35;98666.69;;;10.45;100.00
27840;BME280;15207;42.182;24.308;2022-11-20T00:38:01;98644.78;;;10.30;100.00
27840;BME280;15207;42.182;24.308;2022-11-20T00:40:26;98659.41;;;10.26;100.00
27840;BME280;15207;42.182;24.308;2022-11-20T00:42:52;98656.28;;;10.21;100.00
27840;BME280;15207;42.182;24.308;2022-11-20T00:45:17;98653.44;;;10.12;100.00
27840;BME280;15207;42.182;24.308;2022-11-20T00:47:43;98653.03;;;10.17;100.00
27840;BME280;15207;42.182;24.308;2022-11-20T00:50:08;98648.94;;;10.13;100.00
27840;BME280;15207;42.182;24.308;2022-11-20T00:52:34;98624.41;;;10.08;100.00
27840;BME280;15207;42.182;24.308;2022-11-20T00:54:59;98634.91;;;9.89;100.00
27840;BME280;15207;42.182;24.308;2022-11-20T00:57:25;98647.16;;;9.92;100.00
27840;BME280;15207;42.182;24.308;2022-11-20T00:59:50;98643.63;;;9.91;100.00
27840;BME280;15207;42.182;24.308;2022-11-20T01:02:16;98635.63;;;9.70;100.00
27840;BME280;15207;42.182;24.308;2022-11-20T01:04:42;98645.94;;;9.53;100.00
27840;BME280;15207;42.182;24.308;2022-11-20T01:07:07;98629.91;;;9.75;100.00
27840;BME280;15207;42.182;24.308;2022-11-20T01:09:33;98609.44;;;9.64;100.00
27840;BME280;15207;42.182;24.308;2022-11-20T01:11:59;98598.50;;;9.77;100.00
27840;BME280;15207;42.182;24.308;2022-11-20T01:14:25;98610.50;;;9.83;100.00
27840;BME280;15207;42.182;24.308;2022-11-20T01:16:51;98619.88;;;9.98;100.00
27840;BME280;15207;42.182;24.308;2022-11-20T01:19:20;98586.75;;;9.89;100.00
27840;BME280;15207;42.182;24.308;2022-11-20T01:21:49;98572.88;;;9.74;100.00
27840;BME280;15207;42.182;24.308;2022-11-20T01:24:16;98583.47;;;9.86;100.00
27840;BME280;15207;42.182;24.308;2022-11-20T01:26:43;98579.91;;;9.65;100.00
27840;BME280;15207;42.182;24.308;2022-11-20T01:29:23;98565.91;;;9.31;100.00
27840;BME280;15207;42.182;24.308;2022-11-20T01:31:49;98572.34;;;9.28;100.00
27840;BME280;15207;42.182;24.308;2022-11-20T01:34:16;98599.53;;;9.55;100.00
27840;BME280;15207;42.182;24.308;2022-11-20T01:36:42;98583.78;;;9.51;100.00
27840;BME280;15207;42.182;24.308;2022-11-20T01:39:17;98599.50;;;9.76;100.00
27840;BME280;15207;42.182;24.308;2022-11-20T01:41:43;98581.97;;;9.93;100.00
27840;BME280;15207;42.182;24.308;2022-11-20T01:44:57;98564.69;;;10.07;100.00
27840;BME280;15207;42.182;24.308;2022-11-20T01:50:17;98568.38;;;10.16;100.00
27840;BME280;15207;42.182;24.308;2022-11-20T01:55:21;98558.66;;;10.15;100.00
27840;BME280;15207;42.182;24.308;2022-11-20T01:57:48;98560.78;;;10.21;100.00
27840;BME280;15207;42.182;24.308;2022-11-20T02:00:17;98557.78;;;9.95;100.00
27840;BME280;15207;42.182;24.308;2022-11-20T02:02:49;98554.63;;;9.79;100.00
27840;BME280;15207;42.182;24.308;2022-11-20T02:05:24;98564.94;;;9.84;100.00
27840;BME280;15207;42.182;24.308;2022-11-20T02:07:52;98570.09;;;9.76;100.00
27840;BME280;15207;42.182;24.308;2022-11-20T02:10:18;98566.75;;;9.84;100.00
27840;BME280;15207;42.182;24.308;2022-11-20T02:12:43;98558.53;;;9.44;100.00
27840;BME280;15207;42.182;24.308;2022-11-20T02:15:27;98577.22;;;9.65;100.00
27840;BME280;15207;42.182;24.308;2022-11-20T02:17:53;98561.19;;;9.65;100.00
27840;BME280;15207;42.182;24.308;2022-11-20T02:20:19;98551.53;;;9.53;100.00
27840;BME280;15207;42.182;24.308;2022-11-20T02:22:49;98566.69;;;9.74;100.00
27840;BME280;15207;42.182;24.308;2022-11-20T02:25:19;98543.91;;;9.79;100.00
27840;BME280;15207;42.182;24.308;2022-11-20T02:27:45;98545.59;;;9.81;100.00
27840;BME280;15207;42.182;24.308;2022-11-20T02:30:11;98547.44;;;9.80;100.00
27840;BME280;15207;42.182;24.308;2022-11-20T02:32:38;98560.91;;;10.00;100.00
27840;BME280;15207;42.182;24.308;2022-11-20T02:35:09;98551.00;;;9.90;100.00
27840;BME280;15207;42.182;24.308;2022-11-20T02:37:37;98550.78;;;9.72;100.00
27840;BME280;15207;42.182;24.308;2022-11-20T02:40:04;98571.50;;;9.80;100.00
27840;BME280;15207;42.182;24.308;2022-11-20T02:42:30;98547.94;;;9.64;100.00
27840;BME280;15207;42.182;24.308;2022-11-20T02:44:55;98561.97;;;9.56;100.00
27840;BME280;15207;42.182;24.308;2022-11-20T02:47:21;98530.59;;;9.27;100.00
27840;BME280;15207;42.182;24.308;2022-11-20T02:49:46;98541.72;;;9.11;100.00
27840;BME280;15207;42.182;24.308;2022-11-20T02:52:12;98552.88;;;9.16;100.00
27840;BME280;15207;42.182;24.308;2022-11-20T02:54:37;98548.91;;;9.32;100.00
27840;BME280;15207;42.182;24.308;2022-11-20T02:57:03;98539.78;;;9.13;100.00
27840;BME280;15207;42.182;24.308;2022-11-20T02:59:28;98537.03;;;9.24;100.00
27840;BME280;15207;42.182;24.308;2022-11-20T03:01:54;98526.31;;;9.15;100.00
27840;BME280;15207;42.182;24.308;2022-11-20T03:04:19;98518.88;;;8.97;100.00
27840;BME280;15207;42.182;24.308;2022-11-20T03:06:45;98514.53;;;9.17;100.00
27840;BME280;15207;42.182;24.308;2022-11-20T03:09:11;98516.22;;;9.18;100.00
27840;BME280;15207;42.182;24.308;2022-11-20T03:11:36;98512.41;;;9.21;100.00
27840;BME280;15207;42.182;24.308;2022-11-20T03:14:04;98504.84;;;9.26;100.00
27840;BME280;15207;42.182;24.308;2022-11-20T03:16:30;98498.09;;;9.22;100.00
27840;BME280;15207;42.182;24.308;2022-11-20T03:18:57;98512.69;;;9.18;100.00
27840;BME280;15207;42.182;24.308;2022-11-20T03:21:23;98521.69;;;9.17;100.00
27840;BME280;15207;42.182;24.308;2022-11-20T03:23:48;98518.63;;;9.21;100.00
27840;BME280;15207;42.182;24.308;2022-11-20T03:26:20;98527.22;;;9.25;100.00
27840;BME280;15207;42.182;24.308;2022-11-20T03:28:47;98527.25;;;9.35;100.00
27840;BME280;15207;42.182;24.308;2022-11-20T03:31:14;98524.34;;;9.38;100.00
27840;BME280;15207;42.182;24.308;2022-11-20T03:33:41;98522.94;;;9.44;100.00
27840;BME280;15207;42.182;24.308;2022-11-20T03:36:12;98525.84;;;9.62;100.00
27840;BME280;15207;42.182;24.308;2022-11-20T03:38:39;98525.31;;;9.78;100.00
27840;BME280;15207;42.182;24.308;2022-11-20T03:41:07;98520.34;;;10.04;100.00
27840;BME280;15207;42.182;24.308;2022-11-20T03:43:33;98514.06;;;10.35;100.00
27840;BME280;15207;42.182;24.308;2022-11-20T03:45:59;98504.94;;;10.67;100.00
27840;BME280;15207;42.182;24.308;2022-11-20T03:48:25;98504.63;;;11.10;100.00
27840;BME280;15207;42.182;24.308;2022-11-20T03:50:52;98507.25;;;11.30;100.00
27840;BME280;15207;42.182;24.308;2022-11-20T03:53:18;98534.94;;;11.01;100.00
27840;BME280;15207;42.182;24.308;2022-11-20T03:56:00;98568.50;;;10.95;100.00
27840;BME280;15207;42.182;24.308;2022-11-20T03:58:27;98565.56;;;10.98;100.00
27840;BME280;15207;42.182;24.308;2022-11-20T04:00:53;98547.06;;;11.05;100.00
27840;BME280;15207;42.182;24.308;2022-11-20T04:03:19;98549.44;;;11.08;100.00
27840;BME280;15207;42.182;24.308;2022-11-20T04:05:44;98551.28;;;11.17;100.00
27840;BME280;15207;42.182;24.308;2022-11-20T04:08:10;98562.81;;;11.28;100.00
27840;BME280;15207;42.182;24.308;2022-11-20T04:10:36;98561.56;;;11.22;100.00
27840;BME280;15207;42.182;24.308;2022-11-20T04:13:01;98534.50;;;11.05;100.00
27840;BME280;15207;42.182;24.308;2022-11-20T04:15:27;98537.50;;;11.02;100.00
27840;BME280;15207;42.182;24.308;2022-11-20T04:17:53;98537.50;;;10.92;100.00
27840;BME280;15207;42.182;24.308;2022-11-20T04:20:20;98538.91;;;10.96;100.00
27840;BME280;15207;42.182;24.308;2022-11-20T04:22:46;98545.38;;;11.04;100.00
27840;BME280;15207;42.182;24.308;2022-11-20T04:25:11;98547.31;;;11.11;100.00
27840;BME280;15207;42.182;24.308;2022-11-20T04:27:37;98532.38;;;11.09;100.00
27840;BME280;15207;42.182;24.308;2022-11-20T04:30:03;98546.78;;;11.18;100.00
27840;BME280;15207;42.182;24.308;2022-11-20T04:32:29;98553.50;;;11.22;100.00
27840;BME280;15207;42.182;24.308;2022-11-20T04:34:54;98576.38;;;11.16;100.00
27840;BME280;15207;42.182;24.308;2022-11-20T04:37:20;98554.69;;;11.09;100.00
27840;BME280;15207;42.182;24.308;2022-11-20T04:39:45;98538.88;;;10.87;100.00
27840;BME280;15207;42.182;24.308;2022-11-20T04:42:11;98551.31;;;10.88;100.00
27840;BME280;15207;42.182;24.308;2022-11-20T04:44:56;98561.63;;;10.82;100.00
27840;BME280;15207;42.182;24.308;2022-11-20T04:47:22;98540.31;;;10.81;100.00
27840;BME280;15207;42.182;24.308;2022-11-20T04:49:47;98543.72;;;10.73;100.00
27840;BME280;15207;42.182;24.308;2022-11-20T04:52:13;98531.44;;;10.70;100.00
27840;BME280;15207;42.182;24.308;2022-11-20T04:54:39;98515.06;;;10.74;100.00
27840;BME280;15207;42.182;24.308;2022-11-20T04:57:04;98509.59;;;10.45;100.00
27840;BME280;15207;42.182;24.308;2022-11-20T04:59:30;98533.00;;;10.53;100.00
27840;BME280;15207;42.182;24.308;2022-11-20T05:01:55;98523.69;;;10.48;100.00
27840;BME280;15207;42.182;24.308;2022-11-20T05:04:21;98535.38;;;10.47;100.00
27840;BME280;15207;42.182;24.308;2022-11-20T05:06:47;98539.41;;;10.41;100.00
27840;BME280;15207;42.182;24.308;2022-11-20T05:09:13;98554.22;;;10.35;100.00
27840;BME280;15207;42.182;24.308;2022-11-20T05:11:38;98557.16;;;10.32;100.00
27840;BME280;15207;42.182;24.308;2022-11-20T05:14:04;98536.28;;;10.16;100.00
27840;BME280;15207;42.182;24.308;2022-11-20T05:16:29;98545.97;;;9.97;100.00
27840;BME280;15207;42.182;24.308;2022-11-20T05:18:55;98546.03;;;9.86;100.00
27840;BME280;15207;42.182;24.308;2022-11-20T05:21:21;98551.25;;;9.77;100.00
27840;BME280;15207;42.182;24.308;2022-11-20T05:23:46;98539.66;;;9.67;100.00
27840;BME280;15207;42.182;24.308;2022-11-20T05:26:15;98541.91;;;9.72;100.00
27840;BME280;15207;42.182;24.308;2022-11-20T05:28:40;98527.88;;;9.79;100.00
27840;BME280;15207;42.182;24.308;2022-11-20T05:31:08;98533.59;;;9.65;100.00
27840;BME280;15207;42.182;24.308;2022-11-20T05:33:39;98541.97;;;9.82;100.00
27840;BME280;15207;42.182;24.308;2022-11-20T05:36:06;98535.53;;;9.94;100.00
27840;BME280;15207;42.182;24.308;2022-11-20T05:38:32;98521.72;;;9.89;100.00
27840;BME280;15207;42.182;24.308;2022-11-20T05:41:05;98525.53;;;9.96;100.00
27840;BME280;15207;42.182;24.308;2022-11-20T05:43:35;98522.03;;;9.96;100.00
27840;BME280;15207;42.182;24.308;2022-11-20T05:46:02;98526.50;;;9.95;100.00
27840;BME280;15207;42.182;24.308;2022-11-20T05:48:27;98517.09;;;10.01;100.00
27840;BME280;15207;42.182;24.308;2022-11-20T05:50:53;98528.63;;;10.01;100.00
27840;BME280;15207;42.182;24.308;2022-11-20T05:53:19;98546.69;;;10.09;100.00
27840;BME280;15207;42.182;24.308;2022-11-20T05:55:44;98533.47;;;10.08;100.00
27840;BME280;15207;42.182;24.308;2022-11-20T05:58:10;98527.25;;;9.97;100.00
27840;BME280;15207;42.182;24.308;2022-11-20T06:00:35;98548.47;;;9.89;100.00
27840;BME280;15207;42.182;24.308;2022-11-20T06:03:01;98550.31;;;9.98;100.00
27840;BME280;15207;42.182;24.308;2022-11-20T06:05:27;98545.38;;;9.93;100.00
27840;BME280;15207;42.182;24.308;2022-11-20T06:07:52;98548.91;;;10.04;100.00
27840;BME280;15207;42.182;24.308;2022-11-20T06:10:18;98558.53;;;10.16;100.00
27840;BME280;15207;42.182;24.308;2022-11-20T06:12:43;98562.50;;;10.22;100.00
27840;BME280;15207;42.182;24.308;2022-11-20T06:15:09;98571.78;;;10.28;100.00
27840;BME280;15207;42.182;24.308;2022-11-20T06:17:34;98565.75;;;10.26;100.00
27840;BME280;15207;42.182;24.308;2022-11-20T06:20:00;98585.59;;;10.23;100.00
27840;BME280;15207;42.182;24.308;2022-11-20T06:22:26;98583.06;;;10.31;100.00
27840;BME280;15207;42.182;24.308;2022-11-20T06:24:51;98594.75;;;10.21;100.00
27840;BME280;15207;42.182;24.308;2022-11-20T06:27:17;98601.34;;;10.16;100.00
27840;BME280;15207;42.182;24.308;2022-11-20T06:29:42;98594.13;;;10.07;100.00
27840;BME280;15207;42.182;24.308;2022-11-20T06:32:08;98611.19;;;10.16;100.00
27840;BME280;15207;42.182;24.308;2022-11-20T06:34:34;98597.03;;;10.35;100.00
27840;BME280;15207;42.182;24.308;2022-11-20T06:36:59;98592.72;;;10.44;100.00
27840;BME280;15207;42.182;24.308;2022-11-20T06:39:25;98592.16;;;10.50;100.00
27840;BME280;15207;42.182;24.308;2022-11-20T06:41:50;98594.66;;;10.42;100.00
27840;BME280;15207;42.182;24.308;2022-11-20T06:44:16;98588.06;;;10.46;100.00
27840;BME280;15207;42.182;24.308;2022-11-20T06:46:41;98593.16;;;10.69;100.00
27840;BME280;15207;42.182;24.308;2022-11-20T06:49:07;98587.13;;;10.67;100.00
27840;BME280;15207;42.182;24.308;2022-11-20T06:51:32;98577.53;;;10.74;100.00
27840;BME280;15207;42.182;24.308;2022-11-20T06:53:58;98590.06;;;10.93;100.00
27840;BME280;15207;42.182;24.308;2022-11-20T06:56:23;98575.41;;;11.07;100.00
27840;BME280;15207;42.182;24.308;2022-11-20T06:58:49;98576.94;;;11.20;100.00
27840;BME280;15207;42.182;24.308;2022-11-20T07:01:15;98580.03;;;11.25;100.00
27840;BME280;15207;42.182;24.308;2022-11-20T07:03:41;98581.69;;;11.46;100.00
27840;BME280;15207;42.182;24.308;2022-11-20T07:06:07;98588.28;;;11.61;100.00
27840;BME280;15207;42.182;24.308;2022-11-20T07:08:33;98593.63;;;11.71;100.00
27840;BME280;15207;42.182;24.308;2022-11-20T07:11:00;98589.91;;;11.82;100.00
27840;BME280;15207;42.182;24.308;2022-11-20T07:13:28;98589.47;;;11.87;100.00
27840;BME280;15207;42.182;24.308;2022-11-20T07:15:53;98591.97;;;11.98;100.00
27840;BME280;15207;42.182;24.308;2022-11-20T07:18:19;98598.44;;;12.34;100.00
27840;BME280;15207;42.182;24.308;2022-11-20T07:20:45;98605.34;;;12.82;100.00
27840;BME280;15207;42.182;24.308;2022-11-20T07:23:10;98595.31;;;13.03;100.00
27840;BME280;15207;42.182;24.308;2022-11-20T07:25:36;98599.13;;;13.18;100.00
27840;BME280;15207;42.182;24.308;2022-11-20T07:28:02;98593.00;;;13.53;100.00
27840;BME280;15207;42.182;24.308;2022-11-20T07:30:29;98593.00;;;13.79;100.00
27840;BME280;15207;42.182;24.308;2022-11-20T07:32:55;98591.16;;;13.80;100.00
27840;BME280;15207;42.182;24.308;2022-11-20T07:35:22;98592.91;;;13.89;100.00
27840;BME280;15207;42.182;24.308;2022-11-20T07:37:48;98598.56;;;14.12;100.00
27840;BME280;15207;42.182;24.308;2022-11-20T07:40:14;98597.19;;;14.08;100.00
27840;BME280;15207;42.182;24.308;2022-11-20T07:42:50;98588.63;;;14.13;100.00
27840;BME280;15207;42.182;24.308;2022-11-20T07:45:17;98583.78;;;14.17;100.00
27840;BME280;15207;42.182;24.308;2022-11-20T07:47:43;98589.34;;;14.23;100.00
27840;BME280;15207;42.182;24.308;2022-11-20T07:50:09;98586.81;;;14.22;100.00
27840;BME280;15207;42.182;24.308;2022-11-20T07:52:35;98592.50;;;14.19;100.00
27840;BME280;15207;42.182;24.308;2022-11-20T07:55:01;98592.41;;;14.28;100.00
27840;BME280;15207;42.182;24.308;2022-11-20T07:57:26;98590.38;;;14.31;100.00
27840;BME280;15207;42.182;24.308;2022-11-20T07:59:52;98589.09;;;14.51;100.00
27840;BME280;15207;42.182;24.308;2022-11-20T08:02:17;98586.06;;;14.54;100.00
27840;BME280;15207;42.182;24.308;2022-11-20T08:04:43;98578.53;;;14.66;100.00
27840;BME280;15207;42.182;24.308;2022-11-20T08:07:08;98589.50;;;14.81;100.00
27840;BME280;15207;42.182;24.308;2022-11-20T08:09:34;98586.00;;;14.98;100.00
27840;BME280;15207;42.182;24.308;2022-11-20T08:11:59;98577.91;;;15.06;100.00
27840;BME280;15207;42.182;24.308;2022-11-20T08:14:43;98583.31;;;14.98;100.00
27840;BME280;15207;42.182;24.308;2022-11-20T08:17:09;98577.06;;;15.22;100.00
27840;BME280;15207;42.182;24.308;2022-11-20T08:19:35;98586.16;;;15.21;100.00
27840;BME280;15207;42.182;24.308;2022-11-20T08:22:00;98571.84;;;15.20;100.00
27840;BME280;15207;42.182;24.308;2022-11-20T08:24:26;98580.91;;;15.36;100.00
27840;BME280;15207;42.182;24.308;2022-11-20T08:26:51;98586.47;;;15.51;100.00
27840;BME280;15207;42.182;24.308;2022-11-20T08:29:17;98578.56;;;15.58;100.00
27840;BME280;15207;42.182;24.308;2022-11-20T08:31:43;98580.88;;;15.69;100.00
27840;BME280;15207;42.182;24.308;2022-11-20T08:34:08;98583.41;;;15.79;100.00
27840;BME280;15207;42.182;24.308;2022-11-20T08:36:34;98570.53;;;15.90;100.00
27840;BME280;15207;42.182;24.308;2022-11-20T08:39:00;98571.56;;;15.97;100.00
27840;BME280;15207;42.182;24.308;2022-11-20T08:41:26;98583.66;;;16.09;100.00
27840;BME280;15207;42.182;24.308;2022-11-20T08:44:01;98578.28;;;16.09;100.00
27840;BME280;15207;42.182;24.308;2022-11-20T08:46:32;98581.31;;;16.06;100.00
27840;BME280;15207;42.182;24.308;2022-11-20T08:49:05;98580.91;;;16.26;100.00
27840;BME280;15207;42.182;24.308;2022-11-20T08:51:31;98569.38;;;16.32;99.45
27840;BME280;15207;42.182;24.308;2022-11-20T08:53:57;98576.13;;;16.36;99.27
27840;BME280;15207;42.182;24.308;2022-11-20T08:56:23;98568.66;;;16.38;99.02
27840;BME280;15207;42.182;24.308;2022-11-20T08:58:50;98577.03;;;16.52;98.43
27840;BME280;15207;42.182;24.308;2022-11-20T09:01:17;98565.28;;;16.68;96.56
27840;BME280;15207;42.182;24.308;2022-11-20T09:03:42;98564.09;;;16.71;97.81
27840;BME280;15207;42.182;24.308;2022-11-20T09:06:08;98547.19;;;16.69;98.05
27840;BME280;15207;42.182;24.308;2022-11-20T09:08:34;98544.63;;;16.75;98.00
27840;BME280;15207;42.182;24.308;2022-11-20T09:11:01;98533.16;;;16.73;98.81
27840;BME280;15207;42.182;24.308;2022-11-20T09:13:28;98532.06;;;16.83;98.45
27840;BME280;15207;42.182;24.308;2022-11-20T09:15:57;98524.50;;;16.78;97.73
27840;BME280;15207;42.182;24.308;2022-11-20T09:18:24;98529.16;;;16.84;97.88
27840;BME280;15207;42.182;24.308;2022-11-20T09:20:50;98512.72;;;16.94;98.19
27840;BME280;15207;42.182;24.308;2022-11-20T09:23:16;98510.44;;;17.06;97.62
27840;BME280;15207;42.182;24.308;2022-11-20T09:25:43;98507.75;;;17.21;96.45
27840;BME280;15207;42.182;24.308;2022-11-20T09:28:08;98518.16;;;17.33;96.72
27840;BME280;15207;42.182;24.308;2022-11-20T09:30:35;98508.25;;;17.40;95.28
27840;BME280;15207;42.182;24.308;2022-11-20T09:33:00;98508.63;;;17.37;94.69
27840;BME280;15207;42.182;24.308;2022-11-20T09:35:26;98494.84;;;17.47;94.63
27840;BME280;15207;42.182;24.308;2022-11-20T09:37:52;98486.13;;;17.51;95.19
27840;BME280;15207;42.182;24.308;2022-11-20T09:40:28;98489.69;;;17.67;93.63
27840;BME280;15207;42.182;24.308;2022-11-20T09:45:48;98476.13;;;18.12;85.99
27840;BME280;15207;42.182;24.308;2022-11-20T09:48:26;98480.03;;;18.46;79.19
27840;BME280;15207;42.182;24.308;2022-11-20T09:56:11;98482.84;;;19.25;77.09
27840;BME280;15207;42.182;24.308;2022-11-20T09:58:44;98488.56;;;19.44;76.69
27840;BME280;15207;42.182;24.308;2022-11-20T10:01:21;98478.59;;;19.51;75.53
27840;BME280;15207;42.182;24.308;2022-11-20T10:06:21;98475.09;;;19.58;75.34
27840;BME280;15207;42.182;24.308;2022-11-20T10:12:04;98467.06;;;19.85;74.25
27840;BME280;15207;42.182;24.308;2022-11-20T10:14:40;98466.03;;;19.86;76.06
27840;BME280;15207;42.182;24.308;2022-11-20T10:17:33;98472.94;;;19.95;74.76
27840;BME280;15207;42.182;24.308;2022-11-20T10:20:26;98456.66;;;19.95;71.59
27840;BME280;15207;42.182;24.308;2022-11-20T10:23:07;98469.06;;;20.11;71.19
27840;BME280;15207;42.182;24.308;2022-11-20T10:25:54;98465.53;;;20.17;70.23
27840;BME280;15207;42.182;24.308;2022-11-20T10:28:34;98464.16;;;20.42;69.26
27840;BME280;15207;42.182;24.308;2022-11-20T10:31:06;98458.50;;;20.50;71.52
27840;BME280;15207;42.182;24.308;2022-11-20T10:33:38;98457.91;;;20.61;72.73
27840;BME280;15207;42.182;24.308;2022-11-20T10:36:19;98461.66;;;20.60;75.25
27840;BME280;15207;42.182;24.308;2022-11-20T10:38:51;98459.53;;;20.42;76.38
27840;BME280;15207;42.182;24.308;2022-11-20T10:41:27;98460.59;;;20.41;77.14
27840;BME280;15207;42.182;24.308;2022-11-20T10:46:43;98462.91;;;20.44;77.46
27840;BME280;15207;42.182;24.308;2022-11-20T10:49:17;98457.25;;;20.39;77.87
27840;BME280;15207;42.182;24.308;2022-11-20T10:51:59;98452.81;;;20.25;78.97
27840;BME280;15207;42.182;24.308;2022-11-20T11:00:02;98426.47;;;20.25;75.55
27840;BME280;15207;42.182;24.308;2022-11-20T11:02:49;98422.94;;;20.38;76.11
27840;BME280;15207;42.182;24.308;2022-11-20T11:05:39;98431.72;;;20.40;75.83
27840;BME280;15207;42.182;24.308;2022-11-20T11:08:14;98431.75;;;20.47;74.39
27840;BME280;15207;42.182;24.308;2022-11-20T11:11:00;98423.16;;;20.37;73.79
27840;BME280;15207;42.182;24.308;2022-11-20T11:13:30;98421.47;;;20.42;71.84
27840;BME280;15207;42.182;24.308;2022-11-20T11:15:57;98411.25;;;20.44;65.42
27840;BME280;15207;42.182;24.308;2022-11-20T11:18:23;98405.00;;;20.71;58.55
27840;BME280;15207;42.182;24.308;2022-11-20T11:20:50;98404.78;;;21.06;53.32
27840;BME280;15207;42.182;24.308;2022-11-20T11:23:43;98407.22;;;21.35;50.78
27840;BME280;15207;42.182;24.308;2022-11-20T11:26:22;98409.69;;;21.50;51.56
27840;BME280;15207;42.182;24.308;2022-11-20T11:29:03;98407.16;;;21.55;51.49
27840;BME280;15207;42.182;24.308;2022-11-20T11:31:34;98407.34;;;21.60;49.21
27840;BME280;15207;42.182;24.308;2022-11-20T11:34:07;98410.25;;;21.72;49.83
27840;BME280;15207;42.182;24.308;2022-11-20T11:36:34;98408.16;;;21.74;49.52
27840;BME280;15207;42.182;24.308;2022-11-20T11:39:02;98406.66;;;21.78;49.30
27840;BME280;15207;42.182;24.308;2022-11-20T11:41:33;98403.72;;;21.80;49.16
27840;BME280;15207;42.182;24.308;2022-11-20T11:44:29;98411.28;;;21.78;45.70
27840;BME280;15207;42.182;24.308;2022-11-20T11:47:24;98396.56;;;21.92;45.35
27840;BME280;15207;42.182;24.308;2022-11-20T11:56:02;98387.28;;;22.32;44.91
27840;BME280;15207;42.182;24.308;2022-11-20T12:01:03;98381.09;;;22.44;44.12
27840;BME280;15207;42.182;24.308;2022-11-20T12:03:39;98380.03;;;22.52;43.15
27840;BME280;15207;42.182;24.308;2022-11-20T12:06:14;98375.31;;;22.66;43.95
27840;BME280;15207;42.182;24.308;2022-11-20T12:09:02;98378.59;;;22.75;43.42
27840;BME280;15207;42.182;24.308;2022-11-20T12:11:31;98379.81;;;22.79;42.90
27840;BME280;15207;42.182;24.308;2022-11-20T12:14:03;98386.72;;;22.81;42.68
27840;BME280;15207;42.182;24.308;2022-11-20T12:16:35;98379.13;;;22.83;42.46
27840;BME280;15207;42.182;24.308;2022-11-20T12:19:08;98388.00;;;22.79;43.34
27840;BME280;15207;42.182;24.308;2022-11-20T12:21:57;98380.47;;;22.74;42.78
27840;BME280;15207;42.182;24.308;2022-11-20T12:24:44;98380.78;;;22.66;43.07
27840;BME280;15207;42.182;24.308;2022-11-20T12:27:27;98378.03;;;22.66;42.36
27840;BME280;15207;42.182;24.308;2022-11-20T12:43:25;98381.88;;;22.58;43.27
27840;BME280;15207;42.182;24.308;2022-11-20T12:46:44;98376.44;;;22.51;43.62
27840;BME280;15207;42.182;24.308;2022-11-20T12:52:20;98395.59;;;22.44;44.37
27840;BME280;15207;42.182;24.308;2022-11-20T13:00:56;98412.31;;;22.23;46.10
27840;BME280;15207;42.182;24.308;2022-11-20T13:03:51;98417.22;;;22.07;47.26
27840;BME280;15207;42.182;24.308;2022-11-20T13:06:21;98425.06;;;21.90;49.06
27840;BME280;15207;42.182;24.308;2022-11-20T13:08:52;98428.44;;;21.85;49.68
27840;BME280;15207;42.182;24.308;2022-11-20T13:11:27;98430.38;;;21.71;50.83
27840;BME280;15207;42.182;24.308;2022-11-20T13:19:33;98465.47;;;21.20;58.95
27840;BME280;15207;42.182;24.308;2022-11-20T13:21:59;98492.06;;;21.05;58.20
27840;BME280;15207;42.182;24.308;2022-11-20T13:24:27;98511.72;;;20.93;58.08
27840;BME280;15207;42.182;24.308;2022-11-20T13:29:33;98541.09;;;20.42;64.22
27840;BME280;15207;42.182;24.308;2022-11-20T13:32:26;98535.09;;;20.05;66.24
27840;BME280;15207;42.182;24.308;2022-11-20T13:35:00;98526.75;;;19.71;67.77
27840;BME280;15207;42.182;24.308;2022-11-20T13:37:27;98531.81;;;19.46;70.52
27840;BME280;15207;42.182;24.308;2022-11-20T13:40:19;98538.72;;;19.20;71.86
27840;BME280;15207;42.182;24.308;2022-11-20T13:45:36;98525.81;;;18.78;72.68
27840;BME280;15207;42.182;24.308;2022-11-20T13:48:04;98534.84;;;18.63;73.16
27840;BME280;15207;42.182;24.308;2022-11-20T13:50:38;98530.94;;;18.51;75.08
27840;BME280;15207;42.182;24.308;2022-11-20T13:56:20;98518.63;;;18.11;78.88
27840;BME280;15207;42.182;24.308;2022-11-20T13:58:59;98487.78;;;17.97;79.86
27840;BME280;15207;42.182;24.308;2022-11-20T14:01:30;98472.22;;;17.84;79.97
27840;BME280;15207;42.182;24.308;2022-11-20T14:03:57;98451.88;;;17.74;80.20
27840;BME280;15207;42.182;24.308;2022-11-20T14:06:31;98431.28;;;17.57;80.02
27840;BME280;15207;42.182;24.308;2022-11-20T14:08:58;98417.66;;;17.51;78.62
27840;BME280;15207;42.182;24.308;2022-11-20T14:11:27;98419.34;;;17.52;77.72